Terminal Aerodrome Forecast
Issued by NWS Charleston, WV

Current Version | Previous Version | Graphics & Text | Print | Product List | Glossary On
Versions: 1 2 3 4 5 6 7 8 9 10 11 12 13 14 15 16 17 18 19 20 21 22
000
FTUS41 KRLX 311733
TAFPKB
TAF
KPKB 311733Z 3118/0118 21010KT P6SM VCTS SCT045CB
      TEMPO 3118/3120 3SM TSRA BR BKN025CB
     FM010100 VRB03KT P6SM VCTS BKN040CB
     FM010200 28004KT P6SM BKN025
     FM010400 28004KT P6SM BKN015
     FM010600 30004KT 5SM BR BKN015
     FM010800 30004KT 3SM BR BKN015
     FM011600 32007KT P6SM BKN020=

USA.gov is the U.S. government's official web portal to all federal, state and local government web resources and services.